Terminal Aerodrome Forecast
Issued by NWS

Home | Current Version | Previous Version | Text Only | Print | Product List | Glossary On
Versions: 1 2 3 4 5 6 7 8 9 10 11 12 13 14
000
FTUS43 KEAX 270000 AAA
TAFMKC
TAF AMD
KMKC 270031Z 2701/2724 02004KT P6SM BKN100
     FM270200 02005KT P6SM -RA BKN050
     FM270400 02007KT 6SM -RA OVC020
      TEMPO 2705/2709 5SM -RA OVC015
     FM271000 01006KT P6SM SCT030=

USA.gov is the U.S. government's official web portal to all federal, state and local government web resources and services.